sensor_id;sensor_type;location;lat;lon;timestamp;P1;durP1;ratioP1;P2;durP2;ratioP2
14907;SDS011;7545;52.092;7.006;2023-02-15T00:01:47;23.27;;;14.53;;
14907;SDS011;7545;52.092;7.006;2023-02-15T00:04:14;24.20;;;15.07;;
14907;SDS011;7545;52.092;7.006;2023-02-15T00:06:41;21.77;;;14.77;;
14907;SDS011;7545;52.092;7.006;2023-02-15T00:09:08;23.73;;;14.73;;
14907;SDS011;7545;52.092;7.006;2023-02-15T00:11:35;23.63;;;14.70;;
14907;SDS011;7545;52.092;7.006;2023-02-15T00:16:41;25.20;;;14.73;;
14907;SDS011;7545;52.092;7.006;2023-02-15T00:19:08;24.23;;;13.30;;
14907;SDS011;7545;52.092;7.006;2023-02-15T00:21:35;25.53;;;15.47;;
14907;SDS011;7545;52.092;7.006;2023-02-15T00:24:02;23.10;;;15.13;;
14907;SDS011;7545;52.092;7.006;2023-02-15T00:26:29;28.70;;;15.80;;
14907;SDS011;7545;52.092;7.006;2023-02-15T00:28:56;26.80;;;14.67;;
14907;SDS011;7545;52.092;7.006;2023-02-15T00:31:25;22.93;;;14.57;;
14907;SDS011;7545;52.092;7.006;2023-02-15T00:34:01;21.57;;;13.90;;
14907;SDS011;7545;52.092;7.006;2023-02-15T00:36:44;26.77;;;15.00;;
14907;SDS011;7545;52.092;7.006;2023-02-15T00:39:10;20.80;;;12.87;;
14907;SDS011;7545;52.092;7.006;2023-02-15T00:41:36;21.37;;;13.70;;
14907;SDS011;7545;52.092;7.006;2023-02-15T00:44:02;24.33;;;14.93;;
14907;SDS011;7545;52.092;7.006;2023-02-15T00:46:28;20.53;;;13.60;;
14907;SDS011;7545;52.092;7.006;2023-02-15T00:48:54;22.10;;;14.57;;
14907;SDS011;7545;52.092;7.006;2023-02-15T00:51:19;21.50;;;14.17;;
14907;SDS011;7545;52.092;7.006;2023-02-15T00:53:45;23.00;;;13.90;;
14907;SDS011;7545;52.092;7.006;2023-02-15T00:56:11;23.00;;;13.73;;
14907;SDS011;7545;52.092;7.006;2023-02-15T00:58:37;21.40;;;13.73;;
14907;SDS011;7545;52.092;7.006;2023-02-15T01:01:07;21.30;;;13.33;;
14907;SDS011;7545;52.092;7.006;2023-02-15T01:03:43;26.93;;;15.37;;
14907;SDS011;7545;52.092;7.006;2023-02-15T01:06:11;24.27;;;15.43;;
14907;SDS011;7545;52.092;7.006;2023-02-15T01:08:38;24.07;;;14.40;;
14907;SDS011;7545;52.092;7.006;2023-02-15T01:11:05;25.73;;;15.13;;
14907;SDS011;7545;52.092;7.006;2023-02-15T01:13:32;20.63;;;13.97;;
14907;SDS011;7545;52.092;7.006;2023-02-15T01:15:58;23.00;;;13.83;;
14907;SDS011;7545;52.092;7.006;2023-02-15T01:18:24;23.67;;;13.27;;
14907;SDS011;7545;52.092;7.006;2023-02-15T01:20:49;21.03;;;14.63;;
14907;SDS011;7545;52.092;7.006;2023-02-15T01:23:15;21.70;;;14.60;;
14907;SDS011;7545;52.092;7.006;2023-02-15T01:25:41;24.10;;;14.57;;
14907;SDS011;7545;52.092;7.006;2023-02-15T01:28:07;24.90;;;14.03;;
14907;SDS011;7545;52.092;7.006;2023-02-15T01:30:32;23.17;;;15.23;;
14907;SDS011;7545;52.092;7.006;2023-02-15T01:32:59;19.93;;;13.97;;
14907;SDS011;7545;52.092;7.006;2023-02-15T01:35:26;20.07;;;13.60;;
14907;SDS011;7545;52.092;7.006;2023-02-15T01:37:52;23.13;;;13.67;;
14907;SDS011;7545;52.092;7.006;2023-02-15T01:40:18;23.50;;;14.07;;
14907;SDS011;7545;52.092;7.006;2023-02-15T01:42:44;22.67;;;15.00;;
14907;SDS011;7545;52.092;7.006;2023-02-15T01:45:31;22.13;;;13.40;;
14907;SDS011;7545;52.092;7.006;2023-02-15T01:48:04;22.13;;;13.37;;
14907;SDS011;7545;52.092;7.006;2023-02-15T01:50:32;22.77;;;14.17;;
14907;SDS011;7545;52.092;7.006;2023-02-15T01:53:08;23.23;;;14.23;;
14907;SDS011;7545;52.092;7.006;2023-02-15T01:55:36;22.90;;;14.30;;
14907;SDS011;7545;52.092;7.006;2023-02-15T01:58:30;22.20;;;13.87;;
14907;SDS011;7545;52.092;7.006;2023-02-15T02:00:59;22.87;;;14.40;;
14907;SDS011;7545;52.092;7.006;2023-02-15T02:03:49;23.60;;;14.07;;
14907;SDS011;7545;52.092;7.006;2023-02-15T02:06:11;22.10;;;14.63;;
14907;SDS011;7545;52.092;7.006;2023-02-15T02:08:37;21.53;;;13.60;;
14907;SDS011;7545;52.092;7.006;2023-02-15T02:11:09;19.67;;;13.17;;
14907;SDS011;7545;52.092;7.006;2023-02-15T02:13:35;24.33;;;14.27;;
14907;SDS011;7545;52.092;7.006;2023-02-15T02:16:08;22.10;;;12.70;;
14907;SDS011;7545;52.092;7.006;2023-02-15T02:22:20;19.00;;;13.90;;
14907;SDS011;7545;52.092;7.006;2023-02-15T02:41:58;19.47;;;12.97;;
14907;SDS011;7545;52.092;7.006;2023-02-15T02:44:44;18.63;;;12.03;;
14907;SDS011;7545;52.092;7.006;2023-02-15T02:49:58;19.50;;;13.23;;
14907;SDS011;7545;52.092;7.006;2023-02-15T02:57:57;21.33;;;12.03;;
14907;SDS011;7545;52.092;7.006;2023-02-15T03:00:25;18.27;;;13.30;;
14907;SDS011;7545;52.092;7.006;2023-02-15T03:02:56;20.30;;;12.67;;
14907;SDS011;7545;52.092;7.006;2023-02-15T03:05:30;18.83;;;12.73;;
14907;SDS011;7545;52.092;7.006;2023-02-15T03:07:58;18.43;;;12.20;;
14907;SDS011;7545;52.092;7.006;2023-02-15T03:10:30;17.57;;;11.80;;
14907;SDS011;7545;52.092;7.006;2023-02-15T03:12:58;22.20;;;12.70;;
14907;SDS011;7545;52.092;7.006;2023-02-15T03:15:25;18.13;;;11.83;;
14907;SDS011;7545;52.092;7.006;2023-02-15T03:18:17;18.93;;;11.93;;
14907;SDS011;7545;52.092;7.006;2023-02-15T03:20:45;15.87;;;11.83;;
14907;SDS011;7545;52.092;7.006;2023-02-15T03:23:14;16.57;;;11.33;;
14907;SDS011;7545;52.092;7.006;2023-02-15T03:25:45;17.43;;;11.70;;
14907;SDS011;7545;52.092;7.006;2023-02-15T03:28:16;17.53;;;11.47;;
14907;SDS011;7545;52.092;7.006;2023-02-15T03:30:47;18.47;;;13.03;;
14907;SDS011;7545;52.092;7.006;2023-02-15T03:33:16;17.13;;;11.50;;
14907;SDS011;7545;52.092;7.006;2023-02-15T03:35:45;19.10;;;11.93;;
14907;SDS011;7545;52.092;7.006;2023-02-15T03:38:36;20.60;;;13.00;;
14907;SDS011;7545;52.092;7.006;2023-02-15T03:41:09;15.43;;;11.47;;
14907;SDS011;7545;52.092;7.006;2023-02-15T03:43:51;21.17;;;11.60;;
14907;SDS011;7545;52.092;7.006;2023-02-15T03:46:26;19.80;;;11.10;;
14907;SDS011;7545;52.092;7.006;2023-02-15T03:48:58;19.47;;;12.43;;
14907;SDS011;7545;52.092;7.006;2023-02-15T03:51:34;17.97;;;11.37;;
14907;SDS011;7545;52.092;7.006;2023-02-15T03:57:21;17.93;;;11.70;;
14907;SDS011;7545;52.092;7.006;2023-02-15T04:00:16;19.77;;;11.23;;
14907;SDS011;7545;52.092;7.006;2023-02-15T04:03:16;24.13;;;14.33;;
14907;SDS011;7545;52.092;7.006;2023-02-15T04:05:49;27.07;;;16.33;;
14907;SDS011;7545;52.092;7.006;2023-02-15T04:08:14;23.53;;;14.33;;
14907;SDS011;7545;52.092;7.006;2023-02-15T04:10:40;24.07;;;14.03;;
14907;SDS011;7545;52.092;7.006;2023-02-15T04:13:21;20.07;;;12.93;;
14907;SDS011;7545;52.092;7.006;2023-02-15T04:15:48;25.47;;;13.77;;
14907;SDS011;7545;52.092;7.006;2023-02-15T04:18:40;23.67;;;12.80;;
14907;SDS011;7545;52.092;7.006;2023-02-15T04:21:27;21.90;;;14.07;;
14907;SDS011;7545;52.092;7.006;2023-02-15T04:24:13;21.53;;;13.23;;
14907;SDS011;7545;52.092;7.006;2023-02-15T04:26:57;21.00;;;12.93;;
14907;SDS011;7545;52.092;7.006;2023-02-15T04:29:24;19.53;;;12.73;;
14907;SDS011;7545;52.092;7.006;2023-02-15T04:31:51;18.60;;;13.27;;
14907;SDS011;7545;52.092;7.006;2023-02-15T04:34:17;18.93;;;12.17;;
14907;SDS011;7545;52.092;7.006;2023-02-15T04:36:43;21.33;;;12.33;;
14907;SDS011;7545;52.092;7.006;2023-02-15T04:39:09;18.60;;;12.53;;
14907;SDS011;7545;52.092;7.006;2023-02-15T04:41:37;18.57;;;12.00;;
14907;SDS011;7545;52.092;7.006;2023-02-15T04:44:02;17.87;;;12.10;;
14907;SDS011;7545;52.092;7.006;2023-02-15T04:46:28;16.33;;;12.03;;
14907;SDS011;7545;52.092;7.006;2023-02-15T04:48:54;18.33;;;11.23;;
14907;SDS011;7545;52.092;7.006;2023-02-15T04:51:20;16.77;;;11.93;;
14907;SDS011;7545;52.092;7.006;2023-02-15T04:53:46;15.77;;;10.47;;
14907;SDS011;7545;52.092;7.006;2023-02-15T04:56:12;15.77;;;10.73;;
14907;SDS011;7545;52.092;7.006;2023-02-15T04:58:37;17.57;;;11.67;;
14907;SDS011;7545;52.092;7.006;2023-02-15T05:01:06;17.30;;;10.83;;
14907;SDS011;7545;52.092;7.006;2023-02-15T05:03:32;18.30;;;11.43;;
14907;SDS011;7545;52.092;7.006;2023-02-15T05:05:58;15.80;;;11.17;;
14907;SDS011;7545;52.092;7.006;2023-02-15T05:08:23;18.73;;;11.13;;
14907;SDS011;7545;52.092;7.006;2023-02-15T05:10:49;16.23;;;11.77;;
14907;SDS011;7545;52.092;7.006;2023-02-15T05:13:15;16.33;;;11.10;;
14907;SDS011;7545;52.092;7.006;2023-02-15T05:15:41;19.83;;;12.63;;
14907;SDS011;7545;52.092;7.006;2023-02-15T05:18:11;16.07;;;12.33;;
14907;SDS011;7545;52.092;7.006;2023-02-15T05:20:36;20.17;;;12.53;;
14907;SDS011;7545;52.092;7.006;2023-02-15T05:23:02;16.33;;;10.80;;
14907;SDS011;7545;52.092;7.006;2023-02-15T05:25:27;16.37;;;12.17;;
14907;SDS011;7545;52.092;7.006;2023-02-15T05:28:11;17.63;;;11.57;;
14907;SDS011;7545;52.092;7.006;2023-02-15T05:30:49;18.73;;;11.40;;
14907;SDS011;7545;52.092;7.006;2023-02-15T05:33:27;20.27;;;12.60;;
14907;SDS011;7545;52.092;7.006;2023-02-15T05:35:52;16.60;;;11.67;;
14907;SDS011;7545;52.092;7.006;2023-02-15T05:38:18;17.90;;;11.37;;
14907;SDS011;7545;52.092;7.006;2023-02-15T05:40:43;19.73;;;11.80;;
14907;SDS011;7545;52.092;7.006;2023-02-15T05:43:09;19.73;;;12.70;;
14907;SDS011;7545;52.092;7.006;2023-02-15T05:45:35;19.13;;;11.73;;
14907;SDS011;7545;52.092;7.006;2023-02-15T05:48:00;17.00;;;11.77;;
14907;SDS011;7545;52.092;7.006;2023-02-15T05:50:26;19.10;;;12.60;;
14907;SDS011;7545;52.092;7.006;2023-02-15T05:52:52;21.23;;;12.90;;
14907;SDS011;7545;52.092;7.006;2023-02-15T05:55:17;23.03;;;12.73;;
14907;SDS011;7545;52.092;7.006;2023-02-15T05:57:43;21.07;;;13.33;;
14907;SDS011;7545;52.092;7.006;2023-02-15T06:00:09;22.37;;;13.43;;
14907;SDS011;7545;52.092;7.006;2023-02-15T06:02:36;20.07;;;12.77;;
14907;SDS011;7545;52.092;7.006;2023-02-15T06:05:02;18.23;;;11.97;;
14907;SDS011;7545;52.092;7.006;2023-02-15T06:07:29;20.93;;;13.73;;
14907;SDS011;7545;52.092;7.006;2023-02-15T06:09:55;22.40;;;13.17;;
14907;SDS011;7545;52.092;7.006;2023-02-15T06:12:20;20.40;;;13.87;;
14907;SDS011;7545;52.092;7.006;2023-02-15T06:14:46;24.13;;;13.63;;
14907;SDS011;7545;52.092;7.006;2023-02-15T06:17:11;20.67;;;13.23;;
14907;SDS011;7545;52.092;7.006;2023-02-15T06:19:37;22.30;;;14.23;;
14907;SDS011;7545;52.092;7.006;2023-02-15T06:22:02;21.30;;;12.70;;
14907;SDS011;7545;52.092;7.006;2023-02-15T06:24:28;22.93;;;13.13;;
14907;SDS011;7545;52.092;7.006;2023-02-15T06:26:54;23.37;;;14.10;;
14907;SDS011;7545;52.092;7.006;2023-02-15T06:29:19;20.30;;;13.27;;
14907;SDS011;7545;52.092;7.006;2023-02-15T06:31:45;25.30;;;13.43;;
14907;SDS011;7545;52.092;7.006;2023-02-15T06:34:10;24.60;;;12.67;;
14907;SDS011;7545;52.092;7.006;2023-02-15T06:36:36;23.37;;;15.27;;
14907;SDS011;7545;52.092;7.006;2023-02-15T06:39:02;20.80;;;12.43;;
14907;SDS011;7545;52.092;7.006;2023-02-15T06:41:28;22.40;;;14.87;;
14907;SDS011;7545;52.092;7.006;2023-02-15T06:43:54;20.90;;;13.73;;
14907;SDS011;7545;52.092;7.006;2023-02-15T06:46:19;22.77;;;13.40;;
14907;SDS011;7545;52.092;7.006;2023-02-15T06:48:45;20.03;;;13.03;;
14907;SDS011;7545;52.092;7.006;2023-02-15T06:51:10;23.40;;;13.97;;
14907;SDS011;7545;52.092;7.006;2023-02-15T06:53:36;23.30;;;13.47;;
14907;SDS011;7545;52.092;7.006;2023-02-15T06:56:02;21.33;;;12.93;;
14907;SDS011;7545;52.092;7.006;2023-02-15T06:58:31;20.03;;;12.60;;
14907;SDS011;7545;52.092;7.006;2023-02-15T07:00:57;20.23;;;13.37;;
14907;SDS011;7545;52.092;7.006;2023-02-15T07:03:23;20.60;;;12.53;;
14907;SDS011;7545;52.092;7.006;2023-02-15T07:05:49;22.23;;;12.87;;
14907;SDS011;7545;52.092;7.006;2023-02-15T07:08:22;19.80;;;12.40;;
14907;SDS011;7545;52.092;7.006;2023-02-15T07:10:49;18.47;;;12.33;;
14907;SDS011;7545;52.092;7.006;2023-02-15T07:13:15;19.87;;;13.90;;
14907;SDS011;7545;52.092;7.006;2023-02-15T07:15:41;23.07;;;13.87;;
14907;SDS011;7545;52.092;7.006;2023-02-15T07:18:07;24.07;;;12.97;;
14907;SDS011;7545;52.092;7.006;2023-02-15T07:20:32;24.93;;;13.70;;
14907;SDS011;7545;52.092;7.006;2023-02-15T07:23:01;24.60;;;14.40;;
14907;SDS011;7545;52.092;7.006;2023-02-15T07:25:27;22.10;;;12.77;;
14907;SDS011;7545;52.092;7.006;2023-02-15T07:27:56;21.50;;;13.70;;
14907;SDS011;7545;52.092;7.006;2023-02-15T07:30:26;22.63;;;14.50;;
14907;SDS011;7545;52.092;7.006;2023-02-15T07:33:01;30.83;;;15.13;;
14907;SDS011;7545;52.092;7.006;2023-02-15T07:36:07;25.43;;;14.97;;
14907;SDS011;7545;52.092;7.006;2023-02-15T07:38:36;21.87;;;14.27;;
14907;SDS011;7545;52.092;7.006;2023-02-15T07:41:03;22.77;;;15.47;;
14907;SDS011;7545;52.092;7.006;2023-02-15T07:43:32;20.67;;;13.67;;
14907;SDS011;7545;52.092;7.006;2023-02-15T07:46:01;24.40;;;14.33;;
14907;SDS011;7545;52.092;7.006;2023-02-15T07:48:27;23.17;;;15.77;;
14907;SDS011;7545;52.092;7.006;2023-02-15T07:50:53;23.40;;;14.63;;
14907;SDS011;7545;52.092;7.006;2023-02-15T07:53:18;25.53;;;14.60;;
14907;SDS011;7545;52.092;7.006;2023-02-15T07:55:44;24.27;;;14.03;;
14907;SDS011;7545;52.092;7.006;2023-02-15T07:58:10;20.67;;;13.70;;
14907;SDS011;7545;52.092;7.006;2023-02-15T08:00:35;24.07;;;14.40;;
14907;SDS011;7545;52.092;7.006;2023-02-15T08:03:19;24.53;;;15.10;;
14907;SDS011;7545;52.092;7.006;2023-02-15T08:05:54;22.50;;;14.07;;
14907;SDS011;7545;52.092;7.006;2023-02-15T08:08:22;21.63;;;14.77;;
14907;SDS011;7545;52.092;7.006;2023-02-15T08:13:57;29.33;;;16.13;;
14907;SDS011;7545;52.092;7.006;2023-02-15T08:16:25;26.17;;;16.00;;
14907;SDS011;7545;52.092;7.006;2023-02-15T08:18:53;26.87;;;16.20;;
14907;SDS011;7545;52.092;7.006;2023-02-15T08:21:19;25.00;;;15.97;;
14907;SDS011;7545;52.092;7.006;2023-02-15T08:23:46;22.87;;;15.43;;
14907;SDS011;7545;52.092;7.006;2023-02-15T08:26:11;24.40;;;15.87;;
14907;SDS011;7545;52.092;7.006;2023-02-15T08:28:37;25.83;;;15.10;;
14907;SDS011;7545;52.092;7.006;2023-02-15T08:33:32;23.07;;;15.30;;
14907;SDS011;7545;52.092;7.006;2023-02-15T08:36:02;24.43;;;15.93;;
14907;SDS011;7545;52.092;7.006;2023-02-15T08:38:29;31.33;;;17.23;;
14907;SDS011;7545;52.092;7.006;2023-02-15T08:40:54;25.60;;;17.27;;
14907;SDS011;7545;52.092;7.006;2023-02-15T08:43:20;21.00;;;14.27;;
14907;SDS011;7545;52.092;7.006;2023-02-15T08:45:45;24.63;;;16.47;;
14907;SDS011;7545;52.092;7.006;2023-02-15T08:48:11;26.27;;;15.13;;
14907;SDS011;7545;52.092;7.006;2023-02-15T08:50:37;27.17;;;17.30;;
14907;SDS011;7545;52.092;7.006;2023-02-15T08:53:02;27.20;;;16.70;;
14907;SDS011;7545;52.092;7.006;2023-02-15T08:55:28;24.43;;;16.60;;
14907;SDS011;7545;52.092;7.006;2023-02-15T08:57:54;29.70;;;16.93;;
14907;SDS011;7545;52.092;7.006;2023-02-15T09:00:20;26.20;;;17.40;;
14907;SDS011;7545;52.092;7.006;2023-02-15T09:02:50;29.13;;;17.83;;
14907;SDS011;7545;52.092;7.006;2023-02-15T09:05:15;30.13;;;15.83;;
14907;SDS011;7545;52.092;7.006;2023-02-15T09:07:41;27.17;;;16.50;;
14907;SDS011;7545;52.092;7.006;2023-02-15T09:10:07;27.23;;;16.57;;
14907;SDS011;7545;52.092;7.006;2023-02-15T09:12:32;27.13;;;17.57;;
14907;SDS011;7545;52.092;7.006;2023-02-15T09:14:58;26.43;;;16.70;;
14907;SDS011;7545;52.092;7.006;2023-02-15T09:17:23;25.27;;;16.80;;
14907;SDS011;7545;52.092;7.006;2023-02-15T09:19:49;28.87;;;16.80;;
14907;SDS011;7545;52.092;7.006;2023-02-15T09:22:15;25.53;;;16.20;;
14907;SDS011;7545;52.092;7.006;2023-02-15T09:24:40;26.37;;;16.37;;
14907;SDS011;7545;52.092;7.006;2023-02-15T09:27:06;31.47;;;18.53;;
14907;SDS011;7545;52.092;7.006;2023-02-15T09:29:32;28.37;;;17.40;;
14907;SDS011;7545;52.092;7.006;2023-02-15T09:31:57;27.83;;;17.93;;
14907;SDS011;7545;52.092;7.006;2023-02-15T09:34:23;29.33;;;17.07;;
14907;SDS011;7545;52.092;7.006;2023-02-15T09:36:49;30.63;;;17.80;;
14907;SDS011;7545;52.092;7.006;2023-02-15T09:39:15;28.10;;;17.30;;
14907;SDS011;7545;52.092;7.006;2023-02-15T09:47:12;27.97;;;16.57;;
14907;SDS011;7545;52.092;7.006;2023-02-15T09:52:42;28.27;;;17.67;;
14907;SDS011;7545;52.092;7.006;2023-02-15T09:58:19;25.23;;;15.97;;
14907;SDS011;7545;52.092;7.006;2023-02-15T10:01:15;27.67;;;15.67;;
14907;SDS011;7545;52.092;7.006;2023-02-15T10:03:54;24.30;;;15.80;;
14907;SDS011;7545;52.092;7.006;2023-02-15T10:09:33;25.93;;;17.33;;
14907;SDS011;7545;52.092;7.006;2023-02-15T10:23:38;30.33;;;15.67;;
14907;SDS011;7545;52.092;7.006;2023-02-15T10:26:25;25.83;;;16.90;;
14907;SDS011;7545;52.092;7.006;2023-02-15T10:29:07;27.33;;;16.37;;
14907;SDS011;7545;52.092;7.006;2023-02-15T10:31:48;26.07;;;16.83;;
14907;SDS011;7545;52.092;7.006;2023-02-15T10:34:19;24.00;;;15.80;;
14907;SDS011;7545;52.092;7.006;2023-02-15T10:37:01;26.47;;;15.60;;
14907;SDS011;7545;52.092;7.006;2023-02-15T10:50:52;24.57;;;15.80;;
14907;SDS011;7545;52.092;7.006;2023-02-15T10:53:25;28.57;;;17.03;;
14907;SDS011;7545;52.092;7.006;2023-02-15T10:56:26;29.40;;;16.63;;
14907;SDS011;7545;52.092;7.006;2023-02-15T11:05:32;27.20;;;16.13;;
14907;SDS011;7545;52.092;7.006;2023-02-15T11:08:01;26.27;;;15.43;;
14907;SDS011;7545;52.092;7.006;2023-02-15T11:10:35;28.17;;;15.73;;
14907;SDS011;7545;52.092;7.006;2023-02-15T11:13:05;28.07;;;17.07;;
14907;SDS011;7545;52.092;7.006;2023-02-15T11:18:24;23.20;;;15.07;;
14907;SDS011;7545;52.092;7.006;2023-02-15T11:21:07;25.13;;;15.67;;
14907;SDS011;7545;52.092;7.006;2023-02-15T11:23:41;30.17;;;15.07;;
14907;SDS011;7545;52.092;7.006;2023-02-15T11:26:15;27.33;;;15.17;;
14907;SDS011;7545;52.092;7.006;2023-02-15T11:31:21;25.50;;;15.20;;
14907;SDS011;7545;52.092;7.006;2023-02-15T11:33:54;26.83;;;15.70;;
14907;SDS011;7545;52.092;7.006;2023-02-15T11:36:26;27.60;;;15.57;;
14907;SDS011;7545;52.092;7.006;2023-02-15T11:38:58;27.33;;;15.20;;
14907;SDS011;7545;52.092;7.006;2023-02-15T11:41:29;29.27;;;15.77;;
14907;SDS011;7545;52.092;7.006;2023-02-15T11:44:12;26.90;;;15.37;;
14907;SDS011;7545;52.092;7.006;2023-02-15T11:46:41;32.70;;;15.83;;
14907;SDS011;7545;52.092;7.006;2023-02-15T11:49:10;23.13;;;15.30;;
14907;SDS011;7545;52.092;7.006;2023-02-15T11:51:55;27.35;;;15.95;;
14907;SDS011;7545;52.092;7.006;2023-02-15T11:54:26;25.25;;;15.38;;
14907;SDS011;7545;52.092;7.006;2023-02-15T11:56:54;23.23;;;14.73;;
14907;SDS011;7545;52.092;7.006;2023-02-15T11:59:31;25.93;;;15.07;;
14907;SDS011;7545;52.092;7.006;2023-02-15T12:02:01;25.73;;;15.02;;
14907;SDS011;7545;52.092;7.006;2023-02-15T12:12:42;23.48;;;13.57;;
14907;SDS011;7545;52.092;7.006;2023-02-15T12:15:08;21.63;;;13.00;;
14907;SDS011;7545;52.092;7.006;2023-02-15T12:17:40;23.70;;;13.80;;
14907;SDS011;7545;52.092;7.006;2023-02-15T12:22:46;26.00;;;13.20;;
14907;SDS011;7545;52.092;7.006;2023-02-15T12:25:22;25.85;;;14.40;;
14907;SDS011;7545;52.092;7.006;2023-02-15T12:27:51;24.15;;;13.45;;
14907;SDS011;7545;52.092;7.006;2023-02-15T12:30:21;24.05;;;13.48;;
14907;SDS011;7545;52.092;7.006;2023-02-15T12:32:53;21.27;;;14.55;;
14907;SDS011;7545;52.092;7.006;2023-02-15T12:37:55;23.05;;;13.27;;
14907;SDS011;7545;52.092;7.006;2023-02-15T12:40:30;29.50;;;15.23;;
14907;SDS011;7545;52.092;7.006;2023-02-15T12:42:58;24.35;;;13.85;;
14907;SDS011;7545;52.092;7.006;2023-02-15T12:45:31;26.27;;;13.73;;
14907;SDS011;7545;52.092;7.006;2023-02-15T12:48:17;23.80;;;13.45;;
14907;SDS011;7545;52.092;7.006;2023-02-15T12:50:45;25.80;;;13.02;;
14907;SDS011;7545;52.092;7.006;2023-02-15T12:55:47;23.45;;;13.23;;
14907;SDS011;7545;52.092;7.006;2023-02-15T12:58:22;23.65;;;12.23;;
14907;SDS011;7545;52.092;7.006;2023-02-15T13:01:10;19.60;;;13.00;;
14907;SDS011;7545;52.092;7.006;2023-02-15T13:03:54;26.08;;;13.18;;
14907;SDS011;7545;52.092;7.006;2023-02-15T13:06:31;24.83;;;11.73;;
14907;SDS011;7545;52.092;7.006;2023-02-15T13:09:13;21.15;;;12.90;;
14907;SDS011;7545;52.092;7.006;2023-02-15T13:11:42;25.88;;;13.95;;
14907;SDS011;7545;52.092;7.006;2023-02-15T13:16:56;21.95;;;12.98;;
14907;SDS011;7545;52.092;7.006;2023-02-15T13:19:33;20.77;;;12.40;;
14907;SDS011;7545;52.092;7.006;2023-02-15T13:22:00;22.63;;;13.13;;
14907;SDS011;7545;52.092;7.006;2023-02-15T13:24:40;20.88;;;12.60;;
14907;SDS011;7545;52.092;7.006;2023-02-15T13:27:23;25.20;;;13.65;;
14907;SDS011;7545;52.092;7.006;2023-02-15T13:30:02;22.95;;;13.70;;
14907;SDS011;7545;52.092;7.006;2023-02-15T13:32:46;21.75;;;13.05;;
14907;SDS011;7545;52.092;7.006;2023-02-15T13:35:15;25.20;;;12.68;;
14907;SDS011;7545;52.092;7.006;2023-02-15T14:01:55;21.65;;;13.32;;
14907;SDS011;7545;52.092;7.006;2023-02-15T14:16:08;21.10;;;11.25;;
14907;SDS011;7545;52.092;7.006;2023-02-15T14:32:18;22.70;;;11.80;;
14907;SDS011;7545;52.092;7.006;2023-02-15T14:34:52;19.65;;;10.88;;
14907;SDS011;7545;52.092;7.006;2023-02-15T14:48:45;19.40;;;11.60;;
14907;SDS011;7545;52.092;7.006;2023-02-15T14:51:09;18.80;;;10.82;;
14907;SDS011;7545;52.092;7.006;2023-02-15T14:53:36;20.83;;;11.93;;
14907;SDS011;7545;52.092;7.006;2023-02-15T14:58:38;20.90;;;10.82;;
14907;SDS011;7545;52.092;7.006;2023-02-15T15:01:31;17.88;;;10.52;;
14907;SDS011;7545;52.092;7.006;2023-02-15T15:04:03;20.40;;;10.80;;
14907;SDS011;7545;52.092;7.006;2023-02-15T15:06:35;22.67;;;12.00;;
14907;SDS011;7545;52.092;7.006;2023-02-15T15:11:47;22.80;;;12.68;;
14907;SDS011;7545;52.092;7.006;2023-02-15T15:17:02;21.17;;;10.50;;
14907;SDS011;7545;52.092;7.006;2023-02-15T15:22:25;23.50;;;12.02;;
14907;SDS011;7545;52.092;7.006;2023-02-15T15:35:35;21.33;;;11.75;;
14907;SDS011;7545;52.092;7.006;2023-02-15T15:38:30;27.23;;;12.32;;
14907;SDS011;7545;52.092;7.006;2023-02-15T15:41:16;20.13;;;11.40;;
14907;SDS011;7545;52.092;7.006;2023-02-15T15:49:35;25.48;;;13.85;;
14907;SDS011;7545;52.092;7.006;2023-02-15T15:52:08;24.25;;;12.68;;
14907;SDS011;7545;52.092;7.006;2023-02-15T15:54:39;23.23;;;13.82;;
14907;SDS011;7545;52.092;7.006;2023-02-15T15:57:11;23.15;;;13.00;;
14907;SDS011;7545;52.092;7.006;2023-02-15T15:59:45;26.15;;;15.23;;
14907;SDS011;7545;52.092;7.006;2023-02-15T16:02:12;26.67;;;14.57;;
14907;SDS011;7545;52.092;7.006;2023-02-15T16:04:42;26.27;;;15.00;;
14907;SDS011;7545;52.092;7.006;2023-02-15T16:07:14;27.42;;;13.90;;
14907;SDS011;7545;52.092;7.006;2023-02-15T16:12:31;25.33;;;14.10;;
14907;SDS011;7545;52.092;7.006;2023-02-15T16:15:04;28.98;;;14.73;;
14907;SDS011;7545;52.092;7.006;2023-02-15T16:17:55;21.02;;;12.98;;
14907;SDS011;7545;52.092;7.006;2023-02-15T16:20:23;24.70;;;14.93;;
14907;SDS011;7545;52.092;7.006;2023-02-15T16:23:24;24.50;;;14.13;;
14907;SDS011;7545;52.092;7.006;2023-02-15T16:26:42;25.27;;;13.82;;
14907;SDS011;7545;52.092;7.006;2023-02-15T16:29:13;23.38;;;12.48;;
14907;SDS011;7545;52.092;7.006;2023-02-15T16:31:43;25.65;;;12.63;;
14907;SDS011;7545;52.092;7.006;2023-02-15T16:34:22;25.67;;;13.68;;
14907;SDS011;7545;52.092;7.006;2023-02-15T16:36:47;22.15;;;12.50;;
14907;SDS011;7545;52.092;7.006;2023-02-15T16:39:17;27.50;;;14.52;;
14907;SDS011;7545;52.092;7.006;2023-02-15T16:41:44;30.50;;;15.02;;
14907;SDS011;7545;52.092;7.006;2023-02-15T16:44:17;26.60;;;14.68;;
14907;SDS011;7545;52.092;7.006;2023-02-15T16:46:46;27.98;;;16.65;;
14907;SDS011;7545;52.092;7.006;2023-02-15T16:49:32;24.73;;;13.93;;
14907;SDS011;7545;52.092;7.006;2023-02-15T16:52:00;24.98;;;14.77;;
14907;SDS011;7545;52.092;7.006;2023-02-15T16:54:28;26.08;;;14.20;;
14907;SDS011;7545;52.092;7.006;2023-02-15T16:56:56;28.48;;;15.00;;
14907;SDS011;7545;52.092;7.006;2023-02-15T16:59:33;31.30;;;15.50;;
14907;SDS011;7545;52.092;7.006;2023-02-15T17:02:06;25.88;;;15.45;;
14907;SDS011;7545;52.092;7.006;2023-02-15T17:07:42;27.45;;;13.75;;
14907;SDS011;7545;52.092;7.006;2023-02-15T17:10:32;28.45;;;14.43;;
14907;SDS011;7545;52.092;7.006;2023-02-15T17:13:09;28.25;;;15.30;;
14907;SDS011;7545;52.092;7.006;2023-02-15T17:15:37;26.15;;;14.15;;
14907;SDS011;7545;52.092;7.006;2023-02-15T17:18:06;26.10;;;14.88;;
14907;SDS011;7545;52.092;7.006;2023-02-15T17:20:45;33.28;;;16.15;;
14907;SDS011;7545;52.092;7.006;2023-02-15T17:23:19;27.40;;;13.48;;
14907;SDS011;7545;52.092;7.006;2023-02-15T17:26:14;29.23;;;14.88;;
14907;SDS011;7545;52.092;7.006;2023-02-15T17:28:48;31.42;;;15.30;;
14907;SDS011;7545;52.092;7.006;2023-02-15T17:31:27;24.45;;;14.55;;
14907;SDS011;7545;52.092;7.006;2023-02-15T17:33:56;25.10;;;14.88;;
14907;SDS011;7545;52.092;7.006;2023-02-15T17:36:24;24.90;;;15.07;;
14907;SDS011;7545;52.092;7.006;2023-02-15T17:41:22;26.88;;;14.35;;
14907;SDS011;7545;52.092;7.006;2023-02-15T17:43:52;24.80;;;15.02;;
14907;SDS011;7545;52.092;7.006;2023-02-15T17:46:18;28.40;;;15.23;;
14907;SDS011;7545;52.092;7.006;2023-02-15T17:48:50;25.00;;;14.00;;
14907;SDS011;7545;52.092;7.006;2023-02-15T17:51:19;23.27;;;12.98;;
14907;SDS011;7545;52.092;7.006;2023-02-15T17:53:46;23.02;;;12.95;;
14907;SDS011;7545;52.092;7.006;2023-02-15T17:56:31;28.50;;;14.70;;
14907;SDS011;7545;52.092;7.006;2023-02-15T17:59:00;21.33;;;13.50;;
14907;SDS011;7545;52.092;7.006;2023-02-15T18:01:26;25.27;;;14.15;;
14907;SDS011;7545;52.092;7.006;2023-02-15T18:04:14;24.10;;;14.52;;
14907;SDS011;7545;52.092;7.006;2023-02-15T18:06:59;22.83;;;14.68;;
14907;SDS011;7545;52.092;7.006;2023-02-15T18:09:43;26.15;;;15.30;;
14907;SDS011;7545;52.092;7.006;2023-02-15T18:12:28;22.42;;;13.82;;
14907;SDS011;7545;52.092;7.006;2023-02-15T18:14:56;22.80;;;14.00;;
14907;SDS011;7545;52.092;7.006;2023-02-15T18:19:56;24.63;;;13.70;;
14907;SDS011;7545;52.092;7.006;2023-02-15T18:22:22;23.55;;;12.40;;
14907;SDS011;7545;52.092;7.006;2023-02-15T18:24:48;21.50;;;13.60;;